createdAt,value
2022-08-18T00:01:32.076Z,19.73
2022-08-18T00:06:34.562Z,19.71
2022-08-18T00:11:42.055Z,19.69
2022-08-18T00:16:44.421Z,19.65
2022-08-18T00:21:46.459Z,19.60
2022-08-18T00:26:49.056Z,19.54
2022-08-18T00:31:52.198Z,19.45
2022-08-18T00:36:54.241Z,19.36
2022-08-18T00:41:56.387Z,19.30
2022-08-18T00:46:58.280Z,19.29
2022-08-18T00:52:04.665Z,19.27
2022-08-18T00:57:08.878Z,19.23
2022-08-18T01:02:19.223Z,19.15
2022-08-18T01:07:26.444Z,19.09
2022-08-18T01:12:44.922Z,19.09
2022-08-18T01:18:07.658Z,19.10
2022-08-18T01:23:14.670Z,19.04
2022-08-18T01:28:19.522Z,18.98
2022-08-18T01:33:21.709Z,18.95
2022-08-18T01:38:38.990Z,18.97
2022-08-18T01:43:48.395Z,19.01
2022-08-18T01:48:51.781Z,19.03
2022-08-18T01:54:05.957Z,19.05
2022-08-18T01:59:19.589Z,19.06
2022-08-18T02:04:37.089Z,19.06
2022-08-18T02:09:41.582Z,19.04
2022-08-18T02:14:44.282Z,19.03
2022-08-18T02:19:48.237Z,19.02
2022-08-18T02:24:52.776Z,19.00
2022-08-18T02:30:01.967Z,18.96
2022-08-18T02:35:17.510Z,18.94
2022-08-18T02:40:19.824Z,18.93
2022-08-18T02:45:26.251Z,18.92
2022-08-18T02:50:28.274Z,18.88
2022-08-18T02:55:30.262Z,18.83
2022-08-18T03:00:32.267Z,18.81
2022-08-18T03:05:48.980Z,18.75
2022-08-18T03:10:54.074Z,18.66
2022-08-18T03:15:57.230Z,18.57
2022-08-18T03:21:02.129Z,18.51
2022-08-18T03:26:12.814Z,18.45
2022-08-18T03:31:17.198Z,18.43
2022-08-18T03:36:29.611Z,18.44
2022-08-18T03:41:57.094Z,18.44
2022-08-18T03:46:53.679Z,18.43
2022-08-18T03:51:56.078Z,18.43
2022-08-18T03:56:58.565Z,18.45
2022-08-18T04:02:11.987Z,18.51
2022-08-18T04:07:20.953Z,18.65
2022-08-18T04:12:23.883Z,18.84
2022-08-18T04:17:28.286Z,19.06
2022-08-18T04:22:33.943Z,19.31
2022-08-18T04:27:39.401Z,19.61
2022-08-18T04:32:41.296Z,20.02
2022-08-18T04:37:44.128Z,20.76
2022-08-18T04:42:46.329Z,21.53
2022-08-18T04:47:48.542Z,22.69
2022-08-18T04:53:15.968Z,23.48
2022-08-18T04:58:31.985Z,24.15
2022-08-18T05:03:33.939Z,24.89
2022-08-18T05:08:36.296Z,25.66
2022-08-18T05:13:38.972Z,26.13
2022-08-18T05:18:41.661Z,26.44
2022-08-18T05:23:46.715Z,26.18
2022-08-18T05:28:49.204Z,25.54
2022-08-18T05:33:58.006Z,25.13
2022-08-18T05:39:18.090Z,24.82
2022-08-18T05:44:27.405Z,24.53
2022-08-18T05:49:44.168Z,24.41
2022-08-18T05:55:10.010Z,24.21
2022-08-18T06:00:12.610Z,24.00
2022-08-18T06:05:25.859Z,23.96
2022-08-18T06:10:28.312Z,23.96
2022-08-18T06:16:16.041Z,24.00
2022-08-18T06:22:03.975Z,24.06
2022-08-18T06:27:14.952Z,24.25
2022-08-18T06:32:34.399Z,24.57
2022-08-18T06:38:10.188Z,24.88
2022-08-18T06:43:15.970Z,25.07
2022-08-18T06:48:24.473Z,25.35
2022-08-18T06:53:58.727Z,25.76
2022-08-18T06:59:26.190Z,26.19
2022-08-18T07:04:37.455Z,26.66
2022-08-18T07:09:39.460Z,27.02
2022-08-18T07:15:04.954Z,27.34
2022-08-18T07:20:09.666Z,27.94
2022-08-18T07:25:23.137Z,28.28
2022-08-18T07:30:29.123Z,28.51
2022-08-18T07:35:45.012Z,28.63
2022-08-18T07:41:07.329Z,28.88
2022-08-18T07:46:18.466Z,29.21
2022-08-18T07:51:27.060Z,29.55
2022-08-18T07:56:52.929Z,29.87
2022-08-18T08:02:12.989Z,30.08
2022-08-18T08:07:25.684Z,30.26
2022-08-18T08:12:37.282Z,30.59
2022-08-18T08:17:54.230Z,31.00
2022-08-18T08:23:17.479Z,31.30
2022-08-18T08:28:50.261Z,31.59
2022-08-18T08:34:05.833Z,31.65
2022-08-18T08:40:09.936Z,31.37
2022-08-18T08:45:15.737Z,31.25
2022-08-18T08:50:26.433Z,31.37
2022-08-18T08:55:37.561Z,31.42
2022-08-18T09:00:41.140Z,31.77
2022-08-18T09:06:12.571Z,32.01
2022-08-18T09:11:48.528Z,32.53
2022-08-18T09:17:17.268Z,33.00
2022-08-18T09:22:38.344Z,33.11
2022-08-18T09:28:10.082Z,32.92
2022-08-18T09:33:48.015Z,33.00
2022-08-18T09:39:23.216Z,33.21
2022-08-18T09:44:47.172Z,33.25
2022-08-18T09:49:54.710Z,33.23
2022-08-18T09:54:59.732Z,33.40
2022-08-18T10:00:04.886Z,33.69
2022-08-18T10:05:24.460Z,33.67
2022-08-18T10:11:00.651Z,33.89
2022-08-18T10:16:10.787Z,34.21
2022-08-18T10:21:21.146Z,34.40
2022-08-18T10:26:34.128Z,34.73
2022-08-18T10:31:57.640Z,34.79
2022-08-18T10:37:11.801Z,34.88
2022-08-18T10:42:31.171Z,35.09
2022-08-18T10:47:34.265Z,34.96
2022-08-18T10:53:24.265Z,34.98
2022-08-18T10:58:28.215Z,34.76
2022-08-18T11:03:55.800Z,34.38
2022-08-18T11:09:02.206Z,34.01
2022-08-18T11:14:15.809Z,34.55
2022-08-18T11:19:19.933Z,35.14
2022-08-18T11:24:25.225Z,35.24
2022-08-18T11:29:59.017Z,35.32
2022-08-18T11:35:07.594Z,35.62
2022-08-18T11:46:11.785Z,36.06
2022-08-18T11:51:17.703Z,36.18
2022-08-18T11:56:36.071Z,36.32
2022-08-18T12:01:42.174Z,36.54
2022-08-18T12:06:56.740Z,36.36
2022-08-18T12:12:05.206Z,36.23
2022-08-18T12:17:08.161Z,36.23
2022-08-18T12:22:20.283Z,36.53
2022-08-18T12:27:25.399Z,36.70
2022-08-18T12:32:47.025Z,36.90
2022-08-18T12:38:18.147Z,36.73
2022-08-18T12:43:34.131Z,36.87
2022-08-18T12:48:37.977Z,36.62
2022-08-18T12:53:58.488Z,36.40
2022-08-18T12:59:05.442Z,36.29
2022-08-18T13:04:12.495Z,36.61
2022-08-18T13:09:42.703Z,37.01
2022-08-18T13:14:38.988Z,37.48
2022-08-18T13:19:45.667Z,37.87
2022-08-18T13:24:47.779Z,37.90
2022-08-18T13:29:51.097Z,38.28
2022-08-18T13:34:54.569Z,38.69
2022-08-18T13:39:59.653Z,38.82
2022-08-18T13:45:22.611Z,38.88
2022-08-18T13:50:29.537Z,38.62
2022-08-18T13:55:32.036Z,37.88
2022-08-18T14:00:35.044Z,37.75
2022-08-18T14:05:51.464Z,38.16
2022-08-18T14:10:58.046Z,38.30
2022-08-18T14:16:01.563Z,38.44
2022-08-18T14:21:23.578Z,38.84
2022-08-18T14:26:44.127Z,39.23
2022-08-18T14:31:46.463Z,39.28
2022-08-18T14:36:49.167Z,38.98
2022-08-18T14:42:05.218Z,38.81
2022-08-18T14:47:17.487Z,38.75
2022-08-18T14:52:27.855Z,38.63
2022-08-18T14:57:30.145Z,38.35
2022-08-18T15:02:53.071Z,37.85
2022-08-18T15:08:09.135Z,37.65
2022-08-18T15:13:11.821Z,37.82
2022-08-18T15:18:15.171Z,38.06
2022-08-18T15:23:43.625Z,37.99
2022-08-18T15:29:07.731Z,37.88
2022-08-18T15:34:23.477Z,37.91
2022-08-18T15:39:30.127Z,37.91
2022-08-18T15:44:55.114Z,37.90
2022-08-18T15:50:06.819Z,37.79
2022-08-18T15:55:29.497Z,37.43
2022-08-18T16:00:42.408Z,37.23
2022-08-18T16:05:52.912Z,37.08
2022-08-18T16:10:55.964Z,36.80
2022-08-18T16:15:57.928Z,36.71
2022-08-18T16:21:08.294Z,36.90
2022-08-18T16:31:28.342Z,36.92
2022-08-18T16:36:30.323Z,36.81
2022-08-18T16:41:52.086Z,36.82
2022-08-18T16:46:54.249Z,36.89
2022-08-18T16:51:56.929Z,36.81
2022-08-18T16:56:59.337Z,36.48
2022-08-18T17:02:19.506Z,35.89
2022-08-18T17:07:21.686Z,35.16
2022-08-18T17:12:25.259Z,34.45
2022-08-18T17:17:28.260Z,33.55
2022-08-18T17:22:30.391Z,32.58
2022-08-18T17:27:37.489Z,31.73
2022-08-18T17:32:55.678Z,30.97
2022-08-18T17:38:17.124Z,30.29
2022-08-18T17:43:21.982Z,29.73
2022-08-18T17:48:28.720Z,29.25
2022-08-18T17:53:34.489Z,28.79
2022-08-18T17:58:46.617Z,28.40
2022-08-18T18:03:48.856Z,28.03
2022-08-18T18:08:59.251Z,27.70
2022-08-18T18:14:34.065Z,27.38
2022-08-18T18:19:37.374Z,27.06
2022-08-18T18:24:47.714Z,26.80
2022-08-18T18:30:06.344Z,26.57
2022-08-18T18:35:13.630Z,26.36
2022-08-18T18:40:41.800Z,26.15
2022-08-18T18:46:05.195Z,25.95
2022-08-18T18:51:35.790Z,25.77
2022-08-18T18:56:56.762Z,25.60
2022-08-18T19:02:01.026Z,25.46
2022-08-18T19:07:41.158Z,25.29
2022-08-18T19:12:55.628Z,25.01
2022-08-18T19:18:22.099Z,24.77
2022-08-18T19:23:50.208Z,24.56
2022-08-18T19:29:14.256Z,24.41
2022-08-18T19:34:31.044Z,24.30
2022-08-18T19:39:42.759Z,24.18
2022-08-18T19:45:13.017Z,24.08
2022-08-18T19:50:48.755Z,23.96
2022-08-18T19:56:02.386Z,23.83
2022-08-18T20:01:21.093Z,23.70
2022-08-18T20:06:51.204Z,23.58
2022-08-18T20:12:08.583Z,23.51
2022-08-18T20:17:10.748Z,23.48
2022-08-18T20:22:21.775Z,23.46
2022-08-18T20:27:37.208Z,23.42
2022-08-18T20:32:39.469Z,23.40
2022-08-18T20:37:42.708Z,23.36
2022-08-18T20:42:56.344Z,23.33
2022-08-18T20:49:06.283Z,23.33
2022-08-18T20:54:28.043Z,23.37
2022-08-18T20:59:39.170Z,23.44
2022-08-18T21:04:51.804Z,23.49
2022-08-18T21:10:24.505Z,23.49
2022-08-18T21:15:35.727Z,23.47
2022-08-18T21:20:37.743Z,23.46
2022-08-18T21:26:06.632Z,23.46
2022-08-18T21:31:43.547Z,23.46
2022-08-18T21:36:55.383Z,23.43
2022-08-18T21:41:58.517Z,23.43
2022-08-18T21:47:14.998Z,23.43
2022-08-18T21:52:24.264Z,23.43
2022-08-18T21:57:46.514Z,23.43
2022-08-18T22:02:53.333Z,23.44
2022-08-18T22:07:55.731Z,23.42
2022-08-18T22:13:17.387Z,23.42
2022-08-18T22:18:19.251Z,23.42
2022-08-18T22:24:03.863Z,23.40
2022-08-18T22:29:06.008Z,23.34
2022-08-18T22:34:30.555Z,23.30
2022-08-18T22:39:37.770Z,23.28
2022-08-18T22:44:41.752Z,23.26
2022-08-18T22:49:45.397Z,23.24
2022-08-18T22:54:47.395Z,23.24
2022-08-18T22:59:52.989Z,23.22
2022-08-18T23:04:55.609Z,23.21
2022-08-18T23:09:58.288Z,23.18
2022-08-18T23:15:09.606Z,23.17
2022-08-18T23:20:18.228Z,23.13
2022-08-18T23:25:21.382Z,23.10
2022-08-18T23:30:25.100Z,23.05
2022-08-18T23:35:29.703Z,22.96
2022-08-18T23:40:35.274Z,22.87
2022-08-18T23:45:38.995Z,22.76
2022-08-18T23:50:43.402Z,22.64
2022-08-18T23:55:45.412Z,22.55
